createdAt,value
2018-06-04T00:02:09.455Z,84.80
2018-06-04T00:04:37.404Z,86.20
2018-06-04T00:07:05.281Z,85.80
2018-06-04T00:09:33.134Z,84.30
2018-06-04T00:12:01.098Z,85.20
2018-06-04T00:14:28.994Z,86.50
2018-06-04T00:16:56.906Z,86.40
2018-06-04T00:21:52.672Z,85.80
2018-06-04T00:24:20.555Z,87.70
2018-06-04T00:26:48.358Z,88.20
2018-06-04T00:29:16.250Z,87.70
2018-06-04T00:31:44.069Z,87.30
2018-06-04T00:34:11.922Z,88.00
2018-06-04T00:39:08.118Z,87.90
2018-06-04T00:41:36.363Z,87.70
2018-06-04T00:44:04.370Z,88.00
2018-06-04T00:46:32.231Z,89.80
2018-06-04T00:49:00.225Z,87.90
2018-06-04T00:51:28.071Z,89.40
2018-06-04T00:53:55.985Z,89.30
2018-06-04T00:56:24.687Z,89.10
2018-06-04T00:58:52.665Z,88.90
2018-06-04T01:01:20.592Z,88.10
2018-06-04T01:03:48.545Z,90.00
2018-06-04T01:06:16.427Z,88.70
2018-06-04T01:08:44.254Z,89.50
2018-06-04T01:11:12.189Z,90.20
2018-06-04T01:13:40.083Z,90.10
2018-06-04T01:16:07.977Z,90.10
2018-06-04T01:18:35.892Z,90.40
2018-06-04T01:21:03.823Z,89.60
2018-06-04T01:23:31.681Z,89.50
2018-06-04T01:25:59.541Z,90.40
2018-06-04T01:28:27.409Z,89.00
2018-06-04T01:30:55.334Z,90.10
2018-06-04T01:35:51.023Z,89.80
2018-06-04T01:38:18.890Z,90.30
2018-06-04T01:40:46.722Z,90.60
2018-06-04T01:43:14.591Z,90.80
2018-06-04T01:45:42.503Z,90.40
2018-06-04T01:48:10.381Z,90.90
2018-06-04T01:50:38.301Z,90.60
2018-06-04T01:53:06.186Z,90.80
2018-06-04T01:55:34.095Z,91.00
2018-06-04T01:58:01.979Z,91.10
2018-06-04T02:00:29.825Z,90.50
2018-06-04T02:02:57.652Z,90.70
2018-06-04T02:05:25.676Z,91.30
2018-06-04T02:07:53.541Z,90.80
2018-06-04T02:10:21.409Z,91.20
2018-06-04T02:12:49.209Z,90.70
2018-06-04T02:15:17.099Z,91.50
2018-06-04T02:17:44.961Z,91.30
2018-06-04T02:20:12.889Z,91.50
2018-06-04T02:22:40.678Z,91.00
2018-06-04T02:25:08.559Z,91.20
2018-06-04T02:27:36.446Z,90.90
2018-06-04T02:30:04.802Z,91.30
2018-06-04T02:32:32.707Z,91.90
2018-06-04T02:35:00.557Z,91.40
2018-06-04T02:37:28.378Z,91.40
2018-06-04T02:42:24.046Z,91.50
2018-06-04T02:44:51.914Z,91.70
2018-06-04T02:47:19.841Z,91.40
2018-06-04T02:49:47.784Z,91.50
2018-06-04T02:52:15.598Z,91.60
2018-06-04T02:54:43.442Z,91.60
2018-06-04T02:57:11.367Z,92.00
2018-06-04T02:59:39.241Z,91.20
2018-06-04T03:02:07.109Z,92.00
2018-06-04T03:04:35.002Z,91.70
2018-06-04T03:07:02.894Z,91.80
2018-06-04T03:09:30.793Z,92.00
2018-06-04T03:11:58.673Z,92.00
2018-06-04T03:14:26.626Z,92.00
2018-06-04T03:16:54.467Z,92.10
2018-06-04T03:19:22.398Z,92.00
2018-06-04T03:24:18.064Z,92.00
2018-06-04T03:26:45.905Z,92.20
2018-06-04T03:29:13.842Z,92.20
2018-06-04T03:31:41.682Z,91.80
2018-06-04T03:34:09.541Z,92.20
2018-06-04T03:36:37.413Z,92.30
2018-06-04T03:39:11.007Z,92.00
2018-06-04T03:41:39.012Z,92.30
2018-06-04T03:44:06.854Z,92.20
2018-06-04T03:46:35.880Z,91.90
2018-06-04T03:49:04.885Z,91.90
2018-06-04T03:51:33.530Z,92.10
2018-06-04T03:54:01.530Z,91.60
2018-06-04T03:58:58.447Z,91.80
2018-06-04T04:01:27.944Z,91.50
2018-06-04T04:03:55.834Z,91.60
2018-06-04T04:06:23.725Z,91.40
2018-06-04T04:08:51.610Z,91.60
2018-06-04T04:11:19.515Z,91.20
2018-06-04T04:13:47.424Z,90.80
2018-06-04T04:16:15.242Z,91.20
2018-06-04T04:18:43.129Z,91.30
2018-06-04T04:21:11.012Z,91.30
2018-06-04T04:23:38.889Z,91.10
2018-06-04T04:26:06.806Z,91.10
2018-06-04T04:28:34.694Z,90.80
2018-06-04T04:33:30.410Z,90.70
2018-06-04T04:35:58.862Z,90.80
2018-06-04T04:38:26.700Z,90.60
2018-06-04T04:40:54.589Z,90.50
2018-06-04T04:43:22.478Z,90.60
2018-06-04T04:45:50.855Z,90.40
2018-06-04T04:48:19.303Z,90.60
2018-06-04T04:50:47.226Z,90.50
2018-06-04T04:53:15.074Z,90.00
2018-06-04T04:55:42.868Z,89.30
2018-06-04T04:58:10.988Z,86.60
2018-06-04T05:00:39.509Z,82.00
2018-06-04T05:03:07.425Z,79.10
2018-06-04T05:05:35.512Z,75.30
2018-06-04T05:08:03.395Z,73.00
2018-06-04T05:10:31.297Z,71.80
2018-06-04T05:13:00.143Z,70.60
2018-06-04T05:15:30.014Z,68.90
2018-06-04T05:17:58.254Z,64.80
2018-06-04T05:20:26.115Z,64.00
2018-06-04T05:22:54.013Z,61.90
2018-06-04T05:25:21.861Z,60.80
2018-06-04T05:27:50.329Z,59.00
2018-06-04T05:30:18.866Z,60.70
2018-06-04T05:32:46.714Z,59.90
2018-06-04T05:35:14.599Z,57.50
2018-06-04T05:37:42.421Z,55.90
2018-06-04T05:40:10.706Z,56.80
2018-06-04T05:42:39.249Z,57.70
2018-06-04T05:47:34.922Z,57.00
2018-06-04T05:50:02.869Z,59.50
2018-06-04T05:52:30.719Z,59.90
2018-06-04T05:54:58.561Z,59.70
2018-06-04T05:57:26.458Z,58.60
2018-06-04T05:59:54.253Z,57.80
2018-06-04T06:04:49.998Z,55.70
2018-06-04T06:09:45.709Z,55.80
2018-06-04T06:12:13.589Z,56.90
2018-06-04T06:14:41.457Z,57.50
2018-06-04T06:17:09.476Z,59.90
2018-06-04T06:19:37.369Z,58.60
2018-06-04T06:22:05.243Z,58.00
2018-06-04T06:24:33.177Z,59.10
2018-06-04T06:27:04.895Z,60.50
2018-06-04T06:29:32.786Z,62.10
2018-06-04T06:32:00.561Z,61.00
2018-06-04T06:34:28.497Z,61.40
2018-06-04T06:36:56.352Z,62.00
2018-06-04T06:39:24.441Z,60.50
2018-06-04T06:41:52.286Z,61.70
2018-06-04T06:44:20.139Z,63.10
2018-06-04T06:49:15.892Z,64.10
2018-06-04T06:51:43.744Z,63.10
2018-06-04T06:54:11.623Z,63.10
2018-06-04T06:59:07.348Z,56.80
2018-06-04T07:01:35.265Z,56.80
2018-06-04T07:04:03.146Z,57.90
2018-06-04T07:06:31.011Z,58.70
2018-06-04T07:08:58.897Z,58.50
2018-06-04T07:11:26.730Z,58.60
2018-06-04T07:13:54.618Z,59.80
2018-06-04T07:16:22.505Z,61.50
2018-06-04T07:18:50.416Z,59.90
2018-06-04T07:21:18.333Z,61.30
2018-06-04T07:23:46.143Z,61.70
2018-06-04T07:26:14.010Z,63.90
2018-06-04T07:28:41.920Z,63.00
2018-06-04T07:31:09.749Z,62.80
2018-06-04T07:33:37.605Z,63.40
2018-06-04T07:36:10.913Z,63.10
2018-06-04T07:38:39.377Z,62.30
2018-06-04T07:41:07.330Z,62.20
2018-06-04T07:43:35.141Z,62.80
2018-06-04T07:46:03.082Z,62.70
2018-06-04T07:48:30.943Z,63.60
2018-06-04T07:50:58.782Z,64.30
2018-06-04T07:53:26.705Z,63.80
2018-06-04T07:55:54.590Z,63.50
2018-06-04T07:58:22.457Z,62.20
2018-06-04T08:00:50.429Z,63.20
2018-06-04T08:03:18.173Z,63.10
2018-06-04T08:05:46.054Z,64.20
2018-06-04T08:08:13.980Z,64.40
2018-06-04T08:10:41.945Z,63.30
2018-06-04T08:13:09.801Z,63.20
2018-06-04T08:15:37.725Z,62.40
2018-06-04T08:18:05.685Z,62.20
2018-06-04T08:20:33.522Z,62.40
2018-06-04T08:23:01.403Z,62.40
2018-06-04T08:25:29.289Z,63.20
2018-06-04T08:27:57.161Z,62.90
2018-06-04T08:30:25.052Z,62.90
2018-06-04T08:32:52.872Z,62.40
2018-06-04T08:35:20.781Z,62.50
2018-06-04T08:37:48.661Z,62.40
2018-06-04T08:40:16.607Z,62.80
2018-06-04T08:42:44.415Z,62.60
2018-06-04T08:45:12.273Z,61.70
2018-06-04T08:47:40.142Z,62.00
2018-06-04T08:50:08.090Z,61.90
2018-06-04T08:52:35.974Z,62.50
2018-06-04T08:55:03.909Z,61.00
2018-06-04T08:57:31.827Z,60.10
2018-06-04T09:00:00.177Z,58.70
2018-06-04T09:02:28.014Z,59.40
2018-06-04T09:04:55.834Z,59.50
2018-06-04T09:07:23.709Z,59.10
2018-06-04T09:09:51.579Z,59.10
2018-06-04T09:12:19.473Z,60.00
2018-06-04T09:14:50.475Z,60.00
2018-06-04T09:17:18.318Z,60.60
2018-06-04T09:19:46.210Z,59.80
2018-06-04T09:22:14.125Z,59.90
2018-06-04T09:24:41.976Z,59.50
2018-06-04T09:27:09.897Z,59.70
2018-06-04T09:29:37.770Z,58.70
2018-06-04T09:32:05.667Z,58.50
2018-06-04T09:34:33.472Z,57.70
2018-06-04T09:37:01.337Z,58.50
2018-06-04T09:39:29.165Z,59.00
2018-06-04T09:44:24.865Z,58.90
2018-06-04T09:46:52.690Z,58.20
2018-06-04T09:51:48.393Z,57.70
2018-06-04T09:54:16.214Z,56.90
2018-06-04T09:56:46.218Z,52.90
2018-06-04T09:59:14.059Z,51.10
2018-06-04T10:01:42.010Z,48.90
2018-06-04T10:04:09.842Z,46.70
2018-06-04T10:06:37.709Z,46.90
2018-06-04T10:09:07.741Z,44.10
2018-06-04T10:11:35.619Z,43.50
2018-06-04T10:14:03.585Z,44.30
2018-06-04T10:16:31.438Z,43.50
2018-06-04T10:18:59.312Z,42.30
2018-06-04T10:21:27.180Z,41.60
2018-06-04T10:23:55.058Z,40.00
2018-06-04T10:26:22.925Z,38.40
2018-06-04T10:28:50.787Z,38.60
2018-06-04T10:31:18.722Z,38.50
2018-06-04T10:33:46.651Z,37.40
2018-06-04T10:36:14.497Z,37.30
2018-06-04T10:38:42.327Z,37.20
2018-06-04T10:41:10.177Z,36.10
2018-06-04T10:43:38.077Z,34.10
2018-06-04T10:46:05.942Z,33.40
2018-06-04T10:48:33.773Z,33.90
2018-06-04T10:51:01.644Z,34.60
2018-06-04T10:53:29.470Z,33.70
2018-06-04T10:55:57.389Z,34.30
2018-06-04T10:58:25.209Z,34.40
2018-06-04T11:00:53.097Z,31.40
2018-06-04T11:03:20.921Z,30.50
2018-06-04T11:05:48.837Z,32.90
2018-06-04T11:08:16.713Z,31.90
2018-06-04T11:10:44.600Z,29.90
2018-06-04T11:13:12.524Z,29.70
2018-06-04T11:15:40.376Z,28.40
2018-06-04T11:18:08.265Z,29.60
2018-06-04T11:20:36.213Z,28.60
2018-06-04T11:23:04.203Z,26.00
2018-06-04T11:25:32.092Z,26.70
2018-06-04T11:27:59.945Z,27.10
2018-06-04T11:30:27.939Z,26.50
2018-06-04T11:35:23.525Z,25.40
2018-06-04T11:37:51.448Z,25.90
2018-06-04T11:40:19.342Z,26.70
2018-06-04T11:42:47.217Z,26.90
2018-06-04T11:45:15.130Z,26.60
2018-06-04T11:47:42.921Z,25.30
2018-06-04T11:52:38.753Z,27.10
2018-06-04T11:55:06.666Z,26.40
2018-06-04T12:00:02.313Z,26.40
2018-06-04T12:02:30.086Z,26.10
2018-06-04T12:04:57.948Z,25.80
2018-06-04T12:07:25.861Z,25.60
2018-06-04T12:09:53.712Z,26.10
2018-06-04T12:12:21.624Z,25.60
2018-06-04T12:14:49.452Z,26.10
2018-06-04T12:17:17.340Z,25.70
2018-06-04T12:19:45.520Z,25.30
2018-06-04T12:22:13.392Z,25.40
2018-06-04T12:24:41.244Z,26.00
2018-06-04T12:27:09.131Z,25.00
2018-06-04T12:29:37.021Z,24.60
2018-06-04T12:32:04.961Z,26.30
2018-06-04T12:34:32.836Z,26.30
2018-06-04T12:37:00.641Z,26.20
2018-06-04T12:39:30.056Z,26.10
2018-06-04T12:41:57.927Z,25.90
2018-06-04T12:44:27.319Z,25.20
2018-06-04T12:46:55.147Z,25.30
2018-06-04T12:49:22.997Z,25.20
2018-06-04T12:51:50.901Z,24.40
2018-06-04T12:54:18.777Z,27.20
2018-06-04T12:56:46.761Z,26.40
2018-06-04T12:59:14.568Z,25.50
2018-06-04T13:01:42.508Z,25.90
2018-06-04T13:04:10.381Z,26.60
2018-06-04T13:06:38.250Z,26.20
2018-06-04T13:09:07.430Z,26.80
2018-06-04T13:11:35.446Z,27.50
2018-06-04T13:14:05.499Z,25.50
2018-06-04T13:16:33.360Z,27.20
2018-06-04T13:19:01.388Z,26.80
2018-06-04T13:21:29.208Z,25.10
2018-06-04T13:23:57.072Z,26.90
2018-06-04T13:26:28.941Z,25.70
2018-06-04T13:28:56.925Z,26.70
2018-06-04T13:33:52.761Z,28.00
2018-06-04T13:36:20.670Z,28.40
2018-06-04T13:38:48.549Z,27.70
2018-06-04T13:41:17.088Z,29.20
2018-06-04T13:43:44.924Z,28.80
2018-06-04T13:46:12.748Z,30.20
2018-06-04T13:48:40.647Z,29.70
2018-06-04T13:51:08.591Z,30.90
2018-06-04T13:56:04.335Z,30.40
2018-06-04T13:58:36.849Z,31.30
2018-06-04T14:01:05.132Z,31.80
2018-06-04T14:03:32.917Z,33.00
2018-06-04T14:06:00.861Z,32.70
2018-06-04T14:08:28.729Z,30.80
2018-06-04T14:10:56.603Z,32.40
2018-06-04T14:13:24.435Z,32.40
2018-06-04T14:15:52.301Z,32.20
2018-06-04T14:18:20.174Z,30.90
2018-06-04T14:20:47.997Z,30.70
2018-06-04T14:23:15.821Z,31.60
2018-06-04T14:25:43.733Z,31.50
2018-06-04T14:28:11.589Z,32.00
2018-06-04T14:30:39.484Z,34.20
2018-06-04T14:33:07.355Z,33.90
2018-06-04T14:35:35.218Z,34.30
2018-06-04T14:38:03.094Z,35.60
2018-06-04T14:40:30.945Z,34.80
2018-06-04T14:42:58.973Z,33.80
2018-06-04T14:45:26.761Z,34.40
2018-06-04T14:47:54.609Z,33.10
2018-06-04T14:50:23.561Z,34.50
2018-06-04T14:52:51.413Z,33.40
2018-06-04T14:55:19.324Z,33.60
2018-06-04T14:57:47.199Z,33.50
2018-06-04T15:00:15.117Z,34.20
2018-06-04T15:02:43.084Z,34.60
2018-06-04T15:05:11.028Z,33.70
2018-06-04T15:07:38.901Z,32.90
2018-06-04T15:10:06.821Z,32.90
2018-06-04T15:12:34.693Z,34.00
2018-06-04T15:15:02.614Z,31.60
2018-06-04T15:17:30.518Z,31.90
2018-06-04T15:19:58.336Z,32.10
2018-06-04T15:22:26.241Z,30.40
2018-06-04T15:24:54.132Z,33.80
2018-06-04T15:27:21.982Z,32.40
2018-06-04T15:29:49.917Z,32.10
2018-06-04T15:32:20.673Z,32.50
2018-06-04T15:34:49.765Z,31.80
2018-06-04T15:37:17.609Z,33.40
2018-06-04T15:39:45.465Z,33.40
2018-06-04T15:42:16.487Z,33.40
2018-06-04T15:44:44.432Z,33.20
2018-06-04T15:47:12.289Z,33.20
2018-06-04T15:49:40.172Z,34.00
2018-06-04T15:52:08.036Z,34.70
2018-06-04T15:57:03.909Z,34.10
2018-06-04T15:59:31.811Z,33.40
2018-06-04T16:01:59.655Z,33.40
2018-06-04T16:04:27.555Z,34.90
2018-06-04T16:07:04.756Z,35.70
2018-06-04T16:09:37.846Z,36.50
2018-06-04T16:12:05.885Z,37.20
2018-06-04T16:14:33.745Z,36.70
2018-06-04T16:17:01.679Z,37.30
2018-06-04T16:19:29.554Z,37.50
2018-06-04T16:26:54.089Z,38.60
2018-06-04T16:31:50.684Z,39.10
2018-06-04T16:34:18.608Z,38.70
2018-06-04T16:36:47.984Z,39.50
2018-06-04T16:39:16.133Z,39.70
2018-06-04T16:41:44.052Z,39.80
2018-06-04T16:44:11.989Z,40.00
2018-06-04T16:46:39.822Z,40.50
2018-06-04T16:49:07.681Z,40.70
2018-06-04T16:51:35.541Z,41.10
2018-06-04T16:54:03.369Z,41.50
2018-06-04T16:56:31.297Z,41.60
2018-06-04T16:58:59.212Z,41.30
2018-06-04T17:01:27.048Z,41.30
2018-06-04T17:03:54.965Z,41.50
2018-06-04T17:06:23.870Z,41.70
2018-06-04T17:08:51.760Z,41.80
2018-06-04T17:11:19.628Z,42.30
2018-06-04T17:13:47.493Z,42.20
2018-06-04T17:16:15.796Z,42.80
2018-06-04T17:18:44.029Z,42.50
2018-06-04T17:21:11.922Z,41.90
2018-06-04T17:23:39.773Z,42.40
2018-06-04T17:26:07.624Z,42.70
2018-06-04T17:28:35.513Z,42.90
2018-06-04T17:31:03.439Z,43.00
2018-06-04T17:33:31.345Z,42.80
2018-06-04T17:35:59.198Z,43.10
2018-06-04T17:38:27.151Z,43.10
2018-06-04T17:40:54.964Z,43.80
2018-06-04T17:43:22.885Z,43.30
2018-06-04T17:45:50.729Z,43.60
2018-06-04T17:48:18.710Z,44.00
2018-06-04T17:50:46.549Z,44.20
2018-06-04T17:53:14.368Z,44.40
2018-06-04T17:55:42.222Z,44.70
2018-06-04T17:58:13.470Z,45.20
2018-06-04T18:00:41.344Z,45.50
2018-06-04T18:03:09.156Z,45.80
2018-06-04T18:05:37.021Z,46.00
2018-06-04T18:08:04.942Z,46.50
2018-06-04T18:10:32.823Z,47.10
2018-06-04T18:13:00.765Z,47.30
2018-06-04T18:15:28.622Z,47.60
2018-06-04T18:17:56.442Z,48.50
2018-06-04T18:20:24.382Z,48.80
2018-06-04T18:22:52.281Z,49.30
2018-06-04T18:25:20.226Z,49.80
2018-06-04T18:27:48.109Z,50.00
2018-06-04T18:30:16.800Z,50.80
2018-06-04T18:32:44.644Z,51.00
2018-06-04T18:35:12.564Z,51.10
2018-06-04T18:37:40.489Z,51.40
2018-06-04T18:40:08.755Z,51.60
2018-06-04T18:42:36.668Z,51.70
2018-06-04T18:45:04.565Z,52.30
2018-06-04T18:47:32.437Z,52.10
2018-06-04T18:50:00.505Z,52.20
2018-06-04T18:52:28.805Z,52.30
2018-06-04T18:54:56.809Z,52.70
2018-06-04T18:57:25.240Z,53.00
2018-06-04T18:59:53.597Z,53.20
2018-06-04T19:02:21.640Z,53.20
2018-06-04T19:04:49.606Z,53.40
2018-06-04T19:07:17.714Z,53.20
2018-06-04T19:09:45.643Z,53.80
2018-06-04T19:12:14.751Z,53.70
2018-06-04T19:14:42.776Z,54.40
2018-06-04T19:17:10.613Z,54.30
2018-06-04T19:19:38.528Z,54.50
2018-06-04T19:22:06.576Z,54.80
2018-06-04T19:24:34.488Z,55.00
2018-06-04T19:27:02.452Z,55.30
2018-06-04T19:29:30.278Z,55.10
2018-06-04T19:31:58.175Z,55.60
2018-06-04T19:34:25.945Z,55.80
2018-06-04T19:36:53.824Z,56.00
2018-06-04T19:39:21.690Z,56.50
2018-06-04T19:41:49.657Z,56.70
2018-06-04T19:44:17.483Z,57.40
2018-06-04T19:46:45.350Z,57.20
2018-06-04T19:49:13.182Z,57.60
2018-06-04T19:54:09.170Z,58.50
2018-06-04T19:56:37.085Z,58.70
2018-06-04T19:59:05.125Z,58.80
2018-06-04T20:01:32.932Z,58.80
2018-06-04T20:04:00.757Z,58.80
2018-06-04T20:06:28.637Z,59.10
2018-06-04T20:08:56.514Z,58.90
2018-06-04T20:11:24.403Z,59.40
2018-06-04T20:13:52.293Z,60.00
2018-06-04T20:16:20.148Z,60.00
2018-06-04T20:18:48.076Z,60.40
2018-06-04T20:21:15.922Z,60.40
2018-06-04T20:23:43.798Z,60.50
2018-06-04T20:26:11.678Z,60.80
2018-06-04T20:31:07.464Z,60.60
2018-06-04T20:33:35.305Z,60.00
2018-06-04T20:36:03.268Z,60.90
2018-06-04T20:40:58.936Z,61.20
2018-06-04T20:43:26.729Z,62.30
2018-06-04T20:45:54.686Z,62.10
2018-06-04T20:48:22.708Z,62.40
2018-06-04T20:50:50.716Z,62.90
2018-06-04T20:53:18.703Z,63.80
2018-06-04T20:55:46.596Z,63.70
2018-06-04T20:58:14.593Z,63.90
2018-06-04T21:00:42.449Z,64.70
2018-06-04T21:03:10.237Z,64.80
2018-06-04T21:05:38.052Z,65.20
2018-06-04T21:08:05.955Z,64.90
2018-06-04T21:10:33.858Z,66.00
2018-06-04T21:13:01.754Z,66.00
2018-06-04T21:15:29.834Z,66.50
2018-06-04T21:17:57.692Z,65.70
2018-06-04T21:20:25.604Z,66.50
2018-06-04T21:22:53.485Z,67.20
2018-06-04T21:25:21.504Z,67.40
2018-06-04T21:27:52.886Z,67.70
2018-06-04T21:30:21.109Z,68.00
2018-06-04T21:32:49.116Z,67.80
2018-06-04T21:35:16.974Z,68.60
2018-06-04T21:37:44.805Z,69.30
2018-06-04T21:40:12.669Z,69.50
2018-06-04T21:42:40.472Z,70.10
2018-06-04T21:45:08.355Z,71.10
2018-06-04T21:47:36.504Z,70.80
2018-06-04T21:50:04.485Z,71.10
2018-06-04T21:52:32.421Z,70.30
2018-06-04T21:57:28.282Z,71.80
2018-06-04T21:59:56.511Z,71.70
2018-06-04T22:02:24.361Z,71.80
2018-06-04T22:04:52.511Z,72.30
2018-06-04T22:07:20.721Z,73.70
2018-06-04T22:09:48.592Z,74.00
2018-06-04T22:12:16.504Z,74.00
2018-06-04T22:17:12.339Z,74.30
2018-06-04T22:19:40.233Z,74.70
2018-06-04T22:22:08.131Z,75.90
2018-06-04T22:24:36.216Z,74.90
2018-06-04T22:27:04.170Z,75.90
2018-06-04T22:29:32.128Z,74.50
2018-06-04T22:32:00.365Z,74.20
2018-06-04T22:34:31.675Z,74.70
2018-06-04T22:36:59.536Z,76.50
2018-06-04T22:39:27.583Z,76.70
2018-06-04T22:41:55.673Z,76.80
2018-06-04T22:44:23.524Z,77.30
2018-06-04T22:46:51.377Z,77.50
2018-06-04T22:49:19.277Z,77.90
2018-06-04T22:51:47.191Z,78.70
2018-06-04T22:54:15.151Z,77.60
2018-06-04T22:56:42.974Z,77.50
2018-06-04T22:59:10.789Z,79.10
2018-06-04T23:01:38.660Z,79.00
2018-06-04T23:04:07.118Z,79.10
2018-06-04T23:06:35.661Z,79.00
2018-06-04T23:09:06.025Z,78.40
2018-06-04T23:11:34.044Z,79.40
2018-06-04T23:14:02.689Z,80.20
2018-06-04T23:16:30.592Z,79.60
2018-06-04T23:18:59.107Z,80.50
2018-06-04T23:21:27.020Z,80.50
2018-06-04T23:23:54.921Z,79.20
2018-06-04T23:26:22.980Z,80.40
2018-06-04T23:28:50.910Z,81.50
2018-06-04T23:31:18.824Z,81.70
2018-06-04T23:33:46.688Z,82.00
2018-06-04T23:36:14.560Z,81.70
2018-06-04T23:38:42.440Z,80.90
2018-06-04T23:41:10.265Z,81.40
2018-06-04T23:43:38.053Z,81.70
2018-06-04T23:46:06.056Z,81.30
2018-06-04T23:48:34.121Z,83.00
2018-06-04T23:51:01.966Z,82.20
2018-06-04T23:53:29.805Z,82.80
2018-06-04T23:55:57.649Z,82.90
2018-06-04T23:58:25.479Z,83.60
